Terminal Aerodrome Forecast
Issued by NWS

Home | Current Version | Previous Version | Text Only | Print | Product List | Glossary On
Versions: 1 2 3 4 5 6 7 8 9 10 11 12 13 14
000
FTUS43 KLSX 281120
TAFSUS
TAF
KSUS 281120Z 2812/2912 00000KT P6SM BKN250
      TEMPO 2812/2813 5SM BR
     FM281600 17012KT P6SM SCT050 BKN250
     FM290100 16007KT P6SM BKN150=

USA.gov is the U.S. government's official web portal to all federal, state and local government web resources and services.